createdAt,value
2018-05-16T00:00:15.457Z,98101.91
2018-05-16T00:02:41.951Z,98086.88
2018-05-16T00:05:08.342Z,98090.88
2018-05-16T00:07:34.777Z,98087.09
2018-05-16T00:10:01.372Z,98085.36
2018-05-16T00:12:28.568Z,98086.52
2018-05-16T00:14:55.042Z,98093.95
2018-05-16T00:17:21.461Z,98084.50
2018-05-16T00:19:47.906Z,98085.83
2018-05-16T00:22:15.057Z,98081.66
2018-05-16T00:24:41.489Z,98075.59
2018-05-16T00:27:08.368Z,98079.09
2018-05-16T00:29:35.641Z,98073.84
2018-05-16T00:32:02.308Z,98072.05
2018-05-16T00:34:28.793Z,98073.47
2018-05-16T00:36:55.957Z,98068.61
2018-05-16T00:39:22.366Z,98068.80
2018-05-16T00:41:49.490Z,98063.14
2018-05-16T00:44:15.890Z,98064.78
2018-05-16T00:46:42.282Z,98065.37
2018-05-16T00:49:09.421Z,98076.77
2018-05-16T00:51:36.579Z,98074.36
2018-05-16T00:54:03.765Z,98082.09
2018-05-16T00:56:30.181Z,98083.59
2018-05-16T00:58:56.557Z,98083.25
2018-05-16T01:01:22.969Z,98079.69
2018-05-16T01:03:49.376Z,98081.29
2018-05-16T01:06:15.793Z,98081.27
2018-05-16T01:08:42.953Z,98079.20
2018-05-16T01:11:09.336Z,98085.17
2018-05-16T01:13:36.021Z,98079.56
2018-05-16T01:16:02.866Z,98081.68
2018-05-16T01:18:30.009Z,98069.61
2018-05-16T01:20:57.289Z,98076.31
2018-05-16T01:23:23.747Z,98075.10
2018-05-16T01:25:50.220Z,98079.72
2018-05-16T01:28:17.406Z,98079.58
2018-05-16T01:30:43.873Z,98077.47
2018-05-16T01:33:10.559Z,98078.30
2018-05-16T01:35:36.987Z,98076.39
2018-05-16T01:38:04.141Z,98071.67
2018-05-16T01:40:31.250Z,98081.90
2018-05-16T01:42:57.710Z,98078.80
2018-05-16T01:45:24.966Z,98082.88
2018-05-16T01:47:52.280Z,98082.23
2018-05-16T01:50:18.683Z,98082.59
2018-05-16T01:52:45.110Z,98088.98
2018-05-16T01:55:11.632Z,98089.55
2018-05-16T01:57:38.885Z,98088.86
2018-05-16T02:00:06.069Z,98098.05
2018-05-16T02:02:32.486Z,98097.53
2018-05-16T02:04:59.037Z,98097.87
2018-05-16T02:07:25.444Z,98105.16
2018-05-16T02:09:52.479Z,98103.67
2018-05-16T02:12:19.723Z,98103.12
2018-05-16T02:14:47.313Z,98103.48
2018-05-16T02:17:13.714Z,98103.05
2018-05-16T02:19:40.951Z,98098.14
2018-05-16T02:22:07.416Z,98086.49
2018-05-16T02:24:33.848Z,98090.03
2018-05-16T02:27:00.231Z,98081.79
2018-05-16T02:29:26.643Z,98078.45
2018-05-16T02:31:53.324Z,98063.83
2018-05-16T02:34:20.685Z,98058.11
2018-05-16T02:36:48.066Z,98060.13
2018-05-16T02:39:15.418Z,98063.18
2018-05-16T02:41:41.829Z,98069.62
2018-05-16T02:44:08.957Z,98069.76
2018-05-16T02:46:35.432Z,98082.48
2018-05-16T02:49:01.863Z,98080.07
2018-05-16T02:51:29.054Z,98081.70
2018-05-16T02:53:55.540Z,98075.33
2018-05-16T02:56:22.664Z,98066.20
2018-05-16T02:58:49.073Z,98052.59
2018-05-16T03:01:15.515Z,98047.77
2018-05-16T03:03:41.986Z,98048.48
2018-05-16T03:06:09.161Z,98050.27
2018-05-16T03:08:35.563Z,98047.19
2018-05-16T03:11:02.681Z,98055.15
2018-05-16T03:13:29.173Z,98055.41
2018-05-16T03:15:55.620Z,98055.13
2018-05-16T03:18:22.166Z,98057.23
2018-05-16T03:20:48.578Z,98055.97
2018-05-16T03:23:15.007Z,98055.14
2018-05-16T03:25:41.464Z,98052.83
2018-05-16T03:28:08.015Z,98052.91
2018-05-16T03:30:34.502Z,98052.77
2018-05-16T03:33:01.921Z,98057.03
2018-05-16T03:35:28.356Z,98061.68
2018-05-16T03:37:54.772Z,98065.02
2018-05-16T03:40:21.233Z,98073.77
2018-05-16T03:42:47.685Z,98068.77
2018-05-16T03:45:14.866Z,98068.28
2018-05-16T03:47:42.769Z,98068.25
2018-05-16T03:50:09.981Z,98074.27
2018-05-16T03:52:36.374Z,98064.23
2018-05-16T03:55:03.555Z,98059.52
2018-05-16T03:57:48.636Z,98058.80
2018-05-16T04:00:33.545Z,98060.09
2018-05-16T04:03:18.638Z,98054.75
2018-05-16T04:05:45.782Z,98061.12
2018-05-16T04:08:13.094Z,98060.70
2018-05-16T04:10:39.785Z,98057.58
2018-05-16T04:13:06.993Z,98053.17
2018-05-16T04:15:33.465Z,98052.38
2018-05-16T04:17:59.956Z,98054.86
2018-05-16T04:20:26.497Z,98059.77
2018-05-16T04:22:52.903Z,98059.83
2018-05-16T04:25:19.323Z,98059.30
2018-05-16T04:27:45.842Z,98057.39
2018-05-16T04:30:12.273Z,98059.34
2018-05-16T04:32:39.582Z,98057.89
2018-05-16T04:35:06.002Z,98058.53
2018-05-16T04:37:32.388Z,98061.88
2018-05-16T04:39:59.526Z,98063.64
2018-05-16T04:42:26.651Z,98061.41
2018-05-16T04:44:53.259Z,98056.54
2018-05-16T04:47:19.695Z,98058.56
2018-05-16T04:49:46.137Z,98056.59
2018-05-16T04:52:12.665Z,98057.20
2018-05-16T04:54:39.110Z,98059.66
2018-05-16T04:57:05.675Z,98058.23
2018-05-16T04:59:33.575Z,98061.45
2018-05-16T05:02:00.212Z,98054.64
2018-05-16T05:04:26.637Z,98055.48
2018-05-16T05:06:53.795Z,98057.18
2018-05-16T05:09:20.388Z,98057.97
2018-05-16T05:11:46.865Z,98056.90
2018-05-16T05:14:13.605Z,98055.09
2018-05-16T05:16:40.379Z,98062.81
2018-05-16T05:19:07.057Z,98053.97
2018-05-16T05:21:35.043Z,98060.98
2018-05-16T05:24:01.931Z,98060.65
2018-05-16T05:26:28.237Z,98055.83
2018-05-16T05:28:54.762Z,98051.11
2018-05-16T05:31:21.502Z,98054.52
2018-05-16T05:33:48.225Z,98057.37
2018-05-16T05:36:15.334Z,98055.45
2018-05-16T05:38:41.773Z,98050.42
2018-05-16T05:41:08.259Z,98052.09
2018-05-16T05:43:34.821Z,98048.21
2018-05-16T05:46:01.203Z,98047.98
2018-05-16T05:48:28.692Z,98048.55
2018-05-16T05:50:55.525Z,98044.19
2018-05-16T05:53:21.940Z,98047.36
2018-05-16T05:58:22.942Z,98047.09
2018-05-16T06:00:49.802Z,98052.12
2018-05-16T06:03:17.324Z,98046.98
2018-05-16T06:05:45.786Z,98045.51
2018-05-16T06:08:13.700Z,98046.06
2018-05-16T06:10:40.482Z,98046.59
2018-05-16T06:13:07.676Z,98044.47
2018-05-16T06:15:34.364Z,98043.08
2018-05-16T06:18:01.215Z,98047.84
2018-05-16T06:20:28.565Z,98039.94
2018-05-16T06:22:55.868Z,98049.80
2018-05-16T06:25:22.253Z,98041.41
2018-05-16T06:27:48.613Z,98037.77
2018-05-16T06:30:15.039Z,98035.28
2018-05-16T06:32:42.231Z,98037.36
2018-05-16T06:35:09.398Z,98037.58
2018-05-16T06:37:36.178Z,98034.19
2018-05-16T06:40:03.392Z,98042.61
2018-05-16T06:42:29.864Z,98030.81
2018-05-16T06:44:56.247Z,98024.00
2018-05-16T06:47:22.646Z,98035.64
2018-05-16T06:49:49.137Z,98040.42
2018-05-16T06:52:15.580Z,98041.13
2018-05-16T06:54:42.699Z,98040.41
2018-05-16T06:57:09.289Z,98047.30
2018-05-16T06:59:35.686Z,98044.92
2018-05-16T07:02:02.075Z,98043.37
2018-05-16T07:04:28.529Z,98047.89
2018-05-16T07:06:54.918Z,98043.89
2018-05-16T07:09:21.322Z,98053.73
2018-05-16T07:11:48.473Z,98057.13
2018-05-16T07:14:14.869Z,98060.50
2018-05-16T07:16:41.274Z,98063.41
2018-05-16T07:19:07.703Z,98061.34
2018-05-16T07:21:34.179Z,98063.88
2018-05-16T07:24:00.742Z,98057.06
2018-05-16T07:26:27.111Z,98059.70
2018-05-16T07:28:53.534Z,98060.52
2018-05-16T07:31:19.957Z,98061.88
2018-05-16T07:33:46.407Z,98063.57
2018-05-16T07:36:13.138Z,98063.98
2018-05-16T07:38:39.570Z,98072.03
2018-05-16T07:41:06.111Z,98069.31
2018-05-16T07:43:33.311Z,98066.72
2018-05-16T07:45:59.731Z,98074.32
2018-05-16T07:48:26.154Z,98072.30
2018-05-16T07:50:52.552Z,98064.05
2018-05-16T07:53:19.057Z,98070.31
2018-05-16T07:55:45.454Z,98067.32
2018-05-16T07:58:12.174Z,98069.98
2018-05-16T08:00:39.005Z,98075.70
2018-05-16T08:03:05.436Z,98079.33
2018-05-16T08:05:31.917Z,98081.91
2018-05-16T08:07:58.325Z,98082.12
2018-05-16T08:10:24.805Z,98094.76
2018-05-16T08:12:51.916Z,98095.11
2018-05-16T08:15:18.454Z,98095.70
2018-05-16T08:17:44.856Z,98101.81
2018-05-16T08:20:11.239Z,98097.39
2018-05-16T08:22:37.679Z,98101.42
2018-05-16T08:25:04.059Z,98105.44
2018-05-16T08:27:30.449Z,98098.35
2018-05-16T08:29:56.921Z,98103.44
2018-05-16T08:32:23.345Z,98107.20
2018-05-16T08:34:50.495Z,98107.89
2018-05-16T08:37:17.594Z,98113.73
2018-05-16T08:39:44.040Z,98112.09
2018-05-16T08:42:10.461Z,98110.66
2018-05-16T08:44:36.999Z,98120.73
2018-05-16T08:47:03.389Z,98125.84
2018-05-16T08:49:29.758Z,98121.08
2018-05-16T08:51:56.358Z,98119.80
2018-05-16T08:54:22.754Z,98121.16
2018-05-16T08:56:49.921Z,98129.53
2018-05-16T08:59:16.450Z,98123.21
2018-05-16T09:01:43.685Z,98124.50
2018-05-16T09:04:10.856Z,98124.77
2018-05-16T09:06:37.990Z,98127.16
2018-05-16T09:09:04.466Z,98120.41
2018-05-16T09:11:31.208Z,98124.00
2018-05-16T09:13:57.778Z,98125.11
2018-05-16T09:16:24.461Z,98126.55
2018-05-16T09:18:51.917Z,98120.34
2018-05-16T09:21:19.095Z,98121.22
2018-05-16T09:23:45.555Z,98128.48
2018-05-16T09:26:11.969Z,98123.98
2018-05-16T09:28:38.525Z,98131.36
2018-05-16T09:31:04.966Z,98133.44
2018-05-16T09:33:31.606Z,98131.68
2018-05-16T09:35:58.028Z,98126.63
2018-05-16T09:38:24.603Z,98127.44
2018-05-16T09:40:51.785Z,98127.95
2018-05-16T09:43:18.189Z,98129.33
2018-05-16T09:45:46.497Z,98132.44
2018-05-16T09:48:12.871Z,98138.87
2018-05-16T09:50:40.765Z,98136.57
2018-05-16T09:53:08.282Z,98138.73
2018-05-16T09:55:34.833Z,98138.01
2018-05-16T09:58:01.768Z,98145.97
2018-05-16T10:00:28.955Z,98149.86
2018-05-16T10:02:56.425Z,98150.74
2018-05-16T10:05:22.844Z,98152.48
2018-05-16T10:07:49.314Z,98153.12
2018-05-16T10:10:15.822Z,98153.91
2018-05-16T10:12:43.070Z,98156.92
2018-05-16T10:15:09.549Z,98155.55
2018-05-16T10:17:35.945Z,98158.25
2018-05-16T10:20:02.684Z,98163.07
2018-05-16T10:22:29.120Z,98169.46
2018-05-16T10:24:55.516Z,98170.16
2018-05-16T10:27:23.701Z,98162.13
2018-05-16T10:29:50.888Z,98170.60
2018-05-16T10:32:17.611Z,98166.52
2018-05-16T10:34:45.184Z,98171.55
2018-05-16T10:37:11.608Z,98178.91
2018-05-16T10:39:38.448Z,98171.02
2018-05-16T10:42:07.137Z,98165.80
2018-05-16T10:44:33.881Z,98178.17
2018-05-16T10:47:00.702Z,98175.84
2018-05-16T10:49:28.205Z,98174.16
2018-05-16T10:51:54.977Z,98175.48
2018-05-16T10:54:21.395Z,98172.20
2018-05-16T10:56:48.052Z,98172.20
2018-05-16T10:59:16.081Z,98172.37
2018-05-16T11:01:43.214Z,98177.69
2018-05-16T11:04:10.210Z,98172.18
2018-05-16T11:06:36.654Z,98177.61
2018-05-16T11:09:05.622Z,98170.86
2018-05-16T11:11:32.469Z,98174.48
2018-05-16T11:13:59.983Z,98176.62
2018-05-16T11:16:26.463Z,98178.55
2018-05-16T11:18:52.929Z,98175.99
2018-05-16T11:21:20.187Z,98176.78
2018-05-16T11:23:46.707Z,98183.95
2018-05-16T11:26:14.007Z,98184.66
2018-05-16T11:28:40.523Z,98183.03
2018-05-16T11:31:06.959Z,98187.49
2018-05-16T11:33:33.365Z,98182.27
2018-05-16T11:36:01.101Z,98183.86
2018-05-16T11:38:27.557Z,98188.45
2018-05-16T11:40:55.040Z,98188.28
2018-05-16T11:43:21.452Z,98191.78
2018-05-16T11:45:48.720Z,98190.80
2018-05-16T11:48:15.973Z,98183.09
2018-05-16T11:50:43.118Z,98179.09
2018-05-16T11:53:10.331Z,98172.88
2018-05-16T11:55:36.775Z,98182.20
2018-05-16T11:58:03.292Z,98185.45
2018-05-16T12:00:29.708Z,98184.05
2018-05-16T12:02:56.219Z,98184.77
2018-05-16T12:05:23.608Z,98186.61
2018-05-16T12:07:50.122Z,98180.60
2018-05-16T12:10:16.607Z,98178.25
2018-05-16T12:12:43.147Z,98164.98
2018-05-16T12:15:09.553Z,98171.19
2018-05-16T12:17:36.053Z,98171.09
2018-05-16T12:20:02.455Z,98169.89
2018-05-16T12:22:29.795Z,98176.32
2018-05-16T12:24:57.709Z,98182.92
2018-05-16T12:27:24.694Z,98176.17
2018-05-16T12:29:51.469Z,98175.61
2018-05-16T12:32:19.346Z,98178.68
2018-05-16T12:34:45.963Z,98167.77
2018-05-16T12:37:12.741Z,98167.62
2018-05-16T12:39:39.232Z,98163.48
2018-05-16T12:42:05.928Z,98162.31
2018-05-16T12:44:32.370Z,98162.17
2018-05-16T12:46:59.304Z,98166.45
2018-05-16T12:49:26.190Z,98166.48
2018-05-16T12:51:52.740Z,98172.73
2018-05-16T12:54:19.624Z,98169.18
2018-05-16T12:56:46.113Z,98168.08
2018-05-16T12:59:12.698Z,98169.66
2018-05-16T13:01:39.501Z,98167.48
2018-05-16T13:04:06.849Z,98162.47
2018-05-16T13:06:34.036Z,98161.01
2018-05-16T13:09:00.769Z,98155.42
2018-05-16T13:11:27.344Z,98162.74
2018-05-16T13:13:54.337Z,98160.47
2018-05-16T13:16:21.551Z,98173.28
2018-05-16T13:18:48.467Z,98169.89
2018-05-16T13:21:15.074Z,98167.57
2018-05-16T13:23:42.590Z,98171.15
2018-05-16T13:26:09.039Z,98166.33
2018-05-16T13:28:35.425Z,98166.48
2018-05-16T13:31:01.827Z,98160.84
2018-05-16T13:33:29.021Z,98164.80
2018-05-16T13:35:55.445Z,98160.52
2018-05-16T13:38:21.881Z,98166.95
2018-05-16T13:40:48.299Z,98168.90
2018-05-16T13:43:14.905Z,98173.28
2018-05-16T13:45:42.057Z,98169.22
2018-05-16T13:48:09.193Z,98162.42
2018-05-16T13:50:42.627Z,98166.61
2018-05-16T13:53:09.315Z,98157.52
2018-05-16T13:55:35.730Z,98150.41
2018-05-16T13:58:02.155Z,98153.09
2018-05-16T14:00:28.785Z,98142.27
2018-05-16T14:02:55.304Z,98144.44
2018-05-16T14:05:21.749Z,98147.90
2018-05-16T14:07:48.515Z,98153.29
2018-05-16T14:10:15.080Z,98159.31
2018-05-16T14:12:42.177Z,98161.34
2018-05-16T14:15:09.393Z,98164.73
2018-05-16T14:17:36.700Z,98169.69
2018-05-16T14:20:03.391Z,98168.25
2018-05-16T14:22:29.914Z,98172.82
2018-05-16T14:24:57.159Z,98171.53
2018-05-16T14:27:23.576Z,98167.07
2018-05-16T14:29:49.971Z,98164.13
2018-05-16T14:32:16.424Z,98168.39
2018-05-16T14:34:42.961Z,98173.06
2018-05-16T14:37:09.384Z,98182.58
2018-05-16T14:39:35.826Z,98180.23
2018-05-16T14:42:02.229Z,98182.78
2018-05-16T14:44:29.066Z,98191.59
2018-05-16T14:46:55.493Z,98195.44
2018-05-16T14:49:22.719Z,98196.63
2018-05-16T14:51:49.726Z,98208.30
2018-05-16T14:54:17.830Z,98223.58
2018-05-16T14:56:44.330Z,98228.00
2018-05-16T14:59:10.734Z,98238.73
2018-05-16T15:01:37.645Z,98244.70
2018-05-16T15:04:04.322Z,98252.10
2018-05-16T15:06:30.780Z,98249.71
2018-05-16T15:08:57.165Z,98252.36
2018-05-16T15:11:24.311Z,98264.18
2018-05-16T15:13:51.731Z,98265.63
2018-05-16T15:16:18.256Z,98264.15
2018-05-16T15:18:45.086Z,98263.20
2018-05-16T15:21:11.525Z,98262.38
2018-05-16T15:23:37.960Z,98257.07
2018-05-16T15:26:04.894Z,98259.12
2018-05-16T15:28:31.337Z,98255.50
2018-05-16T15:30:58.146Z,98260.60
2018-05-16T15:33:25.595Z,98260.73
2018-05-16T15:35:52.946Z,98254.16
2018-05-16T15:38:20.232Z,98242.41
2018-05-16T15:40:46.633Z,98244.86
2018-05-16T15:43:13.809Z,98247.75
2018-05-16T15:45:40.297Z,98240.00
2018-05-16T15:48:07.060Z,98240.98
2018-05-16T15:50:34.357Z,98229.55
2018-05-16T15:53:01.206Z,98232.55
2018-05-16T15:55:27.891Z,98227.67
2018-05-16T15:57:55.023Z,98230.04
2018-05-16T16:00:22.472Z,98217.93
2018-05-16T16:02:49.404Z,98224.27
2018-05-16T16:05:16.442Z,98223.42
2018-05-16T16:07:43.513Z,98227.59
2018-05-16T16:10:09.949Z,98224.34
2018-05-16T16:12:36.383Z,98226.22
2018-05-16T16:15:02.938Z,98217.84
2018-05-16T16:17:30.375Z,98215.11
2018-05-16T16:19:56.866Z,98217.78
2018-05-16T16:22:23.283Z,98214.59
2018-05-16T16:24:49.845Z,98221.40
2018-05-16T16:27:16.371Z,98217.61
2018-05-16T16:29:42.785Z,98214.34
2018-05-16T16:32:09.193Z,98212.86
2018-05-16T16:34:36.909Z,98221.88
2018-05-16T16:37:03.334Z,98222.14
2018-05-16T16:39:29.854Z,98222.09
2018-05-16T16:41:56.580Z,98221.07
2018-05-16T16:44:23.898Z,98216.52
2018-05-16T16:46:57.469Z,98217.47
2018-05-16T16:49:23.942Z,98216.12
2018-05-16T16:51:51.409Z,98215.09
2018-05-16T16:54:18.563Z,98213.95
2018-05-16T16:56:46.094Z,98215.16
2018-05-16T16:59:12.716Z,98218.84
2018-05-16T17:01:39.534Z,98214.34
2018-05-16T17:04:05.962Z,98214.34
2018-05-16T17:06:32.762Z,98213.00
2018-05-16T17:08:59.276Z,98209.97
2018-05-16T17:11:26.535Z,98209.33
2018-05-16T17:13:52.989Z,98206.53
2018-05-16T17:16:21.032Z,98216.19
2018-05-16T17:18:47.525Z,98211.67
2018-05-16T17:21:14.860Z,98212.75
2018-05-16T17:23:41.362Z,98209.81
2018-05-16T17:26:07.812Z,98210.54
2018-05-16T17:28:34.651Z,98212.88
2018-05-16T17:31:01.944Z,98216.09
2018-05-16T17:33:29.846Z,98212.80
2018-05-16T17:35:56.384Z,98211.96
2018-05-16T17:38:23.264Z,98217.79
2018-05-16T17:40:49.743Z,98221.38
2018-05-16T17:43:18.106Z,98228.84
2018-05-16T17:45:44.600Z,98221.77
2018-05-16T17:48:11.030Z,98229.27
2018-05-16T17:50:37.801Z,98230.44
2018-05-16T17:53:04.203Z,98226.69
2018-05-16T17:55:30.682Z,98225.66
2018-05-16T17:57:57.180Z,98226.00
2018-05-16T18:00:24.475Z,98223.81
2018-05-16T18:02:50.949Z,98231.08
2018-05-16T18:05:17.485Z,98235.34
2018-05-16T18:07:44.277Z,98232.33
2018-05-16T18:10:10.766Z,98233.31
2018-05-16T18:12:38.149Z,98231.20
2018-05-16T18:15:24.365Z,98235.58
2018-05-16T18:17:51.331Z,98229.90
2018-05-16T18:20:18.605Z,98228.25
2018-05-16T18:22:45.484Z,98238.76
2018-05-16T18:25:12.039Z,98247.41
2018-05-16T18:27:39.427Z,98240.33
2018-05-16T18:30:06.385Z,98243.41
2018-05-16T18:32:33.516Z,98245.12
2018-05-16T18:35:01.003Z,98248.17
2018-05-16T18:37:28.000Z,98246.14
2018-05-16T18:39:54.984Z,98252.98
2018-05-16T18:42:21.893Z,98251.05
2018-05-16T18:44:48.316Z,98260.83
2018-05-16T18:47:14.813Z,98258.45
2018-05-16T18:49:42.606Z,98259.50
2018-05-16T18:52:09.030Z,98265.83
2018-05-16T18:54:36.535Z,98264.27
2018-05-16T18:57:03.100Z,98266.90
2018-05-16T18:59:30.431Z,98266.52
2018-05-16T19:01:56.934Z,98272.98
2018-05-16T19:04:23.348Z,98274.08
2018-05-16T19:06:50.472Z,98277.43
2018-05-16T19:09:17.662Z,98275.34
2018-05-16T19:11:44.188Z,98285.43
2018-05-16T19:14:10.804Z,98282.43
2018-05-16T19:16:38.038Z,98278.95
2018-05-16T19:19:04.465Z,98282.92
2018-05-16T19:21:30.899Z,98292.69
2018-05-16T19:23:57.578Z,98289.80
2018-05-16T19:26:23.980Z,98297.58
2018-05-16T19:28:50.491Z,98298.59
2018-05-16T19:31:16.927Z,98298.54
2018-05-16T19:33:43.447Z,98305.98
2018-05-16T19:36:09.843Z,98304.94
2018-05-16T19:38:37.016Z,98305.22
2018-05-16T19:41:03.617Z,98306.84
2018-05-16T19:43:30.216Z,98307.25
2018-05-16T19:45:56.647Z,98314.40
2018-05-16T19:48:23.022Z,98324.61
2018-05-16T19:50:49.717Z,98334.64
2018-05-16T19:53:16.151Z,98329.13
2018-05-16T19:55:42.636Z,98331.66
2018-05-16T19:58:09.847Z,98336.77
2018-05-16T20:00:38.370Z,98332.47
2018-05-16T20:03:05.721Z,98335.55
2018-05-16T20:05:33.043Z,98339.02
2018-05-16T20:07:59.880Z,98333.70
2018-05-16T20:10:26.403Z,98339.55
2018-05-16T20:12:53.676Z,98346.77
2018-05-16T20:15:20.458Z,98341.91
2018-05-16T20:17:46.892Z,98345.47
2018-05-16T20:20:13.510Z,98338.38
2018-05-16T20:22:41.289Z,98352.63
2018-05-16T20:25:08.054Z,98354.03
2018-05-16T20:27:34.522Z,98356.69
2018-05-16T20:30:01.017Z,98357.89
2018-05-16T20:32:27.700Z,98355.00
2018-05-16T20:34:55.368Z,98348.46
2018-05-16T20:37:21.986Z,98341.48
2018-05-16T20:39:48.555Z,98336.70
2018-05-16T20:42:15.871Z,98340.95
2018-05-16T20:44:42.423Z,98335.62
2018-05-16T20:47:09.014Z,98340.63
2018-05-16T20:49:35.671Z,98338.45
2018-05-16T20:52:02.472Z,98346.12
2018-05-16T20:54:29.140Z,98345.85
2018-05-16T20:56:55.889Z,98347.36
2018-05-16T20:59:22.448Z,98354.48
2018-05-16T21:01:49.466Z,98357.33
2018-05-16T21:04:17.318Z,98363.19
2018-05-16T21:06:46.136Z,98363.95
2018-05-16T21:09:12.809Z,98367.32
2018-05-16T21:11:40.706Z,98374.88
2018-05-16T21:14:07.268Z,98379.52
2018-05-16T21:16:34.120Z,98383.78
2018-05-16T21:19:00.626Z,98378.03
2018-05-16T21:21:27.074Z,98373.96
2018-05-16T21:23:53.683Z,98378.09
2018-05-16T21:26:21.465Z,98372.61
2018-05-16T21:28:49.050Z,98364.27
2018-05-16T21:31:15.478Z,98359.67
2018-05-16T21:33:42.806Z,98378.03
2018-05-16T21:36:09.588Z,98381.14
2018-05-16T21:38:36.195Z,98378.30
2018-05-16T21:41:02.842Z,98384.04
2018-05-16T21:43:30.020Z,98376.44
2018-05-16T21:45:56.601Z,98378.97
2018-05-16T21:48:24.446Z,98370.64
2018-05-16T21:50:51.642Z,98366.29
2018-05-16T21:53:18.109Z,98363.91
2018-05-16T21:55:45.414Z,98367.73
2018-05-16T21:58:11.834Z,98374.66
2018-05-16T22:00:39.051Z,98372.59
2018-05-16T22:03:05.671Z,98376.20
2018-05-16T22:05:32.297Z,98373.27
2018-05-16T22:07:59.582Z,98374.58
2018-05-16T22:10:26.106Z,98374.02
2018-05-16T22:12:52.719Z,98371.28
2018-05-16T22:15:19.233Z,98369.46
2018-05-16T22:17:45.761Z,98373.91
2018-05-16T22:20:13.153Z,98371.00
2018-05-16T22:22:39.856Z,98366.20
2018-05-16T22:25:06.250Z,98362.53
2018-05-16T22:27:32.687Z,98355.37
2018-05-16T22:30:00.009Z,98354.08
2018-05-16T22:32:32.660Z,98365.35
2018-05-16T22:35:05.130Z,98359.30
2018-05-16T22:37:37.911Z,98357.95
2018-05-16T22:40:12.514Z,98352.53
2018-05-16T22:42:38.922Z,98349.83
2018-05-16T22:45:05.418Z,98347.14
2018-05-16T22:47:31.906Z,98339.12
2018-05-16T22:49:58.384Z,98342.38
2018-05-16T22:52:24.813Z,98338.20
2018-05-16T22:54:51.292Z,98337.45
2018-05-16T22:57:17.670Z,98333.84
2018-05-16T22:59:44.090Z,98322.26
2018-05-16T23:02:12.475Z,98323.49
2018-05-16T23:04:39.637Z,98320.58
2018-05-16T23:07:06.108Z,98319.67
2018-05-16T23:09:32.547Z,98330.05
2018-05-16T23:11:59.964Z,98329.45
2018-05-16T23:14:26.371Z,98326.44
2018-05-16T23:16:53.548Z,98320.67
2018-05-16T23:19:19.941Z,98315.70
2018-05-16T23:21:46.347Z,98312.30
2018-05-16T23:24:12.706Z,98319.91
2018-05-16T23:26:39.365Z,98313.70
2018-05-16T23:29:06.532Z,98318.77
2018-05-16T23:31:32.965Z,98317.97
2018-05-16T23:33:59.360Z,98318.44
2018-05-16T23:36:27.270Z,98312.05
2018-05-16T23:38:53.717Z,98307.88
2018-05-16T23:41:20.093Z,98304.72
2018-05-16T23:43:46.451Z,98311.47
2018-05-16T23:46:12.853Z,98312.35
2018-05-16T23:48:39.275Z,98311.30
2018-05-16T23:51:05.702Z,98314.23
2018-05-16T23:53:32.128Z,98315.32
2018-05-16T23:55:58.529Z,98313.03
2018-05-16T23:58:24.909Z,98313.11
